createdAt,value
2022-10-07T00:03:23.829Z,16.70
2022-10-07T00:07:41.552Z,16.63
2022-10-07T00:11:59.585Z,17.57
2022-10-07T00:16:20.986Z,15.82
2022-10-07T00:20:39.513Z,15.38
2022-10-07T00:24:56.814Z,15.77
2022-10-07T00:29:14.152Z,19.02
2022-10-07T00:33:33.964Z,16.65
2022-10-07T00:37:51.181Z,21.25
2022-10-07T00:42:13.233Z,16.80
2022-10-07T00:46:39.132Z,14.18
2022-10-07T00:50:58.918Z,12.75
2022-10-07T00:55:20.754Z,18.23
2022-10-07T00:59:40.049Z,14.05
2022-10-07T01:04:12.201Z,20.90
2022-10-07T01:08:30.061Z,14.77
2022-10-07T01:12:57.326Z,13.27
2022-10-07T01:17:30.248Z,15.55
2022-10-07T01:22:19.824Z,15.02
2022-10-07T01:26:44.138Z,17.90
2022-10-07T01:31:06.548Z,14.02
2022-10-07T01:35:28.188Z,15.68
2022-10-07T01:39:58.762Z,24.17
2022-10-07T01:44:16.253Z,24.92
2022-10-07T01:48:34.275Z,18.25
2022-10-07T01:52:51.557Z,13.65
2022-10-07T01:57:47.670Z,15.48
2022-10-07T02:02:14.917Z,15.32
2022-10-07T02:06:35.193Z,17.27
2022-10-07T02:11:10.303Z,19.13
2022-10-07T02:15:54.237Z,18.10
2022-10-07T02:20:13.737Z,16.10
2022-10-07T02:24:34.749Z,17.10
2022-10-07T02:28:54.468Z,18.85
2022-10-07T02:33:12.753Z,18.60
2022-10-07T02:37:34.168Z,14.48
2022-10-07T02:42:05.036Z,21.13
2022-10-07T02:46:37.218Z,19.35
2022-10-07T02:51:00.536Z,16.65
2022-10-07T02:55:23.087Z,14.13
2022-10-07T02:59:41.588Z,15.63
2022-10-07T03:03:59.179Z,15.05
2022-10-07T03:08:17.018Z,14.55
2022-10-07T03:12:34.674Z,16.63
2022-10-07T03:16:55.128Z,14.38
2022-10-07T03:21:12.578Z,15.10
2022-10-07T03:25:29.882Z,14.55
2022-10-07T03:29:48.796Z,13.90
2022-10-07T03:34:06.071Z,13.88
2022-10-07T03:38:23.409Z,14.25
2022-10-07T03:42:43.940Z,17.02
2022-10-07T03:47:01.785Z,18.83
2022-10-07T03:51:19.427Z,15.32
2022-10-07T03:55:37.746Z,14.38
2022-10-07T03:59:55.151Z,21.05
2022-10-07T04:04:12.957Z,19.20
2022-10-07T04:08:32.981Z,15.07
2022-10-07T04:12:54.423Z,16.08
2022-10-07T04:17:11.775Z,13.63
2022-10-07T04:21:29.046Z,13.55
2022-10-07T04:25:47.405Z,13.38
2022-10-07T04:30:05.368Z,26.63
2022-10-07T04:34:22.706Z,23.25
2022-10-07T04:38:40.980Z,16.27
2022-10-07T04:43:17.017Z,13.32
2022-10-07T04:47:35.877Z,12.23
2022-10-07T04:51:54.664Z,13.70
2022-10-07T04:56:12.434Z,15.63
2022-10-07T05:00:29.861Z,10.67
2022-10-07T05:04:47.481Z,11.27
2022-10-07T05:09:04.867Z,13.75
2022-10-07T05:13:23.596Z,15.43
2022-10-07T05:17:41.222Z,16.92
2022-10-07T05:21:58.643Z,14.23
2022-10-07T05:26:15.966Z,14.07
2022-10-07T05:30:33.230Z,19.42
2022-10-07T05:34:50.627Z,11.30
2022-10-07T05:39:09.138Z,13.65
2022-10-07T05:43:31.868Z,12.00
2022-10-07T05:47:49.419Z,13.10
2022-10-07T05:52:07.126Z,10.48
2022-10-07T05:56:24.520Z,16.30
2022-10-07T06:00:53.639Z,15.50
2022-10-07T06:05:11.152Z,17.75
2022-10-07T06:09:51.421Z,12.25
2022-10-07T06:14:08.914Z,14.88
2022-10-07T06:18:27.695Z,11.85
2022-10-07T06:22:45.035Z,22.42
2022-10-07T06:27:02.548Z,14.25
2022-10-07T06:31:25.757Z,13.32
2022-10-07T06:35:43.635Z,14.77
2022-10-07T06:40:01.227Z,14.97
2022-10-07T06:44:19.135Z,12.82
2022-10-07T06:48:36.591Z,15.63
2022-10-07T06:52:53.891Z,19.55
2022-10-07T06:57:33.049Z,15.88
2022-10-07T07:01:48.517Z,14.02
2022-10-07T07:06:08.423Z,15.85
2022-10-07T07:10:25.866Z,14.93
2022-10-07T07:14:45.054Z,15.50
2022-10-07T07:19:08.820Z,14.88
2022-10-07T07:23:27.812Z,16.45
2022-10-07T07:27:49.479Z,13.32
2022-10-07T07:32:08.801Z,18.33
2022-10-07T07:36:26.982Z,14.05
2022-10-07T07:40:44.971Z,15.63
2022-10-07T07:45:02.307Z,13.17
2022-10-07T07:49:21.404Z,10.10
2022-10-07T07:53:39.145Z,12.52
2022-10-07T07:57:56.675Z,12.05
2022-10-07T08:02:14.385Z,8.75
2022-10-07T08:06:33.110Z,13.85
2022-10-07T08:10:52.054Z,11.57
2022-10-07T08:15:10.902Z,10.07
2022-10-07T08:19:29.663Z,8.93
2022-10-07T08:23:50.722Z,13.98
2022-10-07T08:28:08.093Z,12.40
2022-10-07T08:32:25.420Z,13.00
2022-10-07T08:36:47.244Z,10.73
2022-10-07T08:41:33.026Z,7.60
2022-10-07T08:45:52.820Z,8.25
2022-10-07T08:50:19.084Z,13.82
2022-10-07T08:54:38.377Z,10.55
2022-10-07T08:59:13.930Z,15.05
2022-10-07T09:03:51.646Z,11.13
2022-10-07T09:08:28.820Z,9.57
2022-10-07T09:12:51.791Z,10.02
2022-10-07T09:17:15.832Z,6.80
2022-10-07T09:21:51.982Z,9.20
2022-10-07T09:26:16.817Z,11.00
2022-10-07T09:30:34.373Z,6.95
2022-10-07T09:34:52.391Z,7.40
2022-10-07T09:39:22.631Z,9.00
2022-10-07T09:43:59.030Z,9.75
2022-10-07T09:48:24.351Z,10.38
2022-10-07T09:52:55.840Z,9.07
2022-10-07T09:57:40.439Z,10.82
2022-10-07T10:02:18.652Z,7.25
2022-10-07T10:06:36.890Z,6.07
2022-10-07T10:11:01.549Z,6.07
2022-10-07T10:15:27.496Z,6.88
2022-10-07T10:19:45.101Z,8.18
2022-10-07T10:24:15.080Z,7.95
2022-10-07T10:28:47.791Z,6.28
2022-10-07T10:33:31.775Z,4.40
2022-10-07T10:38:13.994Z,8.52
2022-10-07T10:42:44.641Z,7.93
2022-10-07T10:47:42.672Z,3.63
2022-10-07T10:52:30.709Z,5.40
2022-10-07T10:56:55.029Z,6.35
2022-10-07T11:01:28.179Z,3.10
2022-10-07T11:05:47.858Z,4.90
2022-10-07T11:10:07.542Z,4.47
2022-10-07T11:14:26.974Z,5.05
2022-10-07T11:18:50.383Z,3.92
2022-10-07T11:23:42.740Z,6.32
2022-10-07T11:28:33.013Z,5.97
2022-10-07T11:32:56.743Z,5.10
2022-10-07T11:37:25.850Z,5.13
2022-10-07T11:46:28.349Z,6.28
2022-10-07T11:51:04.488Z,3.35
2022-10-07T11:55:39.892Z,7.07
2022-10-07T12:00:00.668Z,3.45
2022-10-07T12:04:38.396Z,4.57
2022-10-07T12:08:56.043Z,7.97
2022-10-07T12:13:13.764Z,6.97
2022-10-07T12:17:31.667Z,4.80
2022-10-07T12:22:03.916Z,5.22
2022-10-07T12:26:50.720Z,5.68
2022-10-07T12:31:21.804Z,4.40
2022-10-07T12:35:48.714Z,5.03
2022-10-07T12:40:22.210Z,4.88
2022-10-07T12:49:25.887Z,3.65
2022-10-07T12:53:43.709Z,7.45
2022-10-07T12:58:21.937Z,4.93
2022-10-07T13:03:23.133Z,10.15
2022-10-07T13:08:07.678Z,7.55
2022-10-07T13:12:30.552Z,3.95
2022-10-07T13:16:55.812Z,6.07
2022-10-07T13:21:37.219Z,6.95
2022-10-07T13:25:58.616Z,6.07
2022-10-07T13:30:40.797Z,5.90
2022-10-07T13:34:59.554Z,6.47
2022-10-07T13:39:20.565Z,6.38
2022-10-07T13:43:38.772Z,7.68
2022-10-07T13:47:57.744Z,6.60
2022-10-07T13:52:40.029Z,7.53
2022-10-07T13:56:59.634Z,7.32
2022-10-07T14:01:17.219Z,6.80
2022-10-07T14:05:48.224Z,4.63
2022-10-07T14:10:10.038Z,4.38
2022-10-07T14:14:33.137Z,8.55
2022-10-07T14:18:52.762Z,6.88
2022-10-07T14:23:33.961Z,6.40
2022-10-07T14:27:57.650Z,6.53
2022-10-07T14:32:39.704Z,8.10
2022-10-07T14:37:27.289Z,5.68
2022-10-07T14:41:48.651Z,15.38
2022-10-07T14:46:15.905Z,10.45
2022-10-07T14:50:33.692Z,6.50
2022-10-07T14:54:53.333Z,9.68
2022-10-07T14:59:15.014Z,5.75
2022-10-07T15:03:33.487Z,9.93
2022-10-07T15:07:51.223Z,7.22
2022-10-07T15:12:11.750Z,13.07
2022-10-07T15:16:30.452Z,6.80
2022-10-07T15:20:55.873Z,10.63
2022-10-07T15:25:16.087Z,5.30
2022-10-07T15:29:33.476Z,12.25
2022-10-07T15:33:51.161Z,11.88
2022-10-07T15:38:08.636Z,7.00
2022-10-07T15:42:26.871Z,9.25
2022-10-07T15:46:46.142Z,10.13
2022-10-07T15:51:04.903Z,12.57
2022-10-07T15:55:22.252Z,8.63
2022-10-07T15:59:39.789Z,10.60
2022-10-07T16:03:58.538Z,14.75
2022-10-07T16:08:15.880Z,11.45
2022-10-07T16:12:33.541Z,8.50
2022-10-07T16:16:50.892Z,13.80
2022-10-07T16:21:10.899Z,10.60
2022-10-07T16:25:28.557Z,8.15
2022-10-07T16:30:04.640Z,9.50
2022-10-07T16:34:21.979Z,11.05
2022-10-07T16:38:40.579Z,8.82
2022-10-07T16:42:59.661Z,12.02
2022-10-07T16:47:17.147Z,12.00
2022-10-07T16:51:37.032Z,8.00
2022-10-07T16:55:54.536Z,12.07
2022-10-07T17:00:12.735Z,10.30
2022-10-07T17:04:30.170Z,12.30
2022-10-07T17:08:49.017Z,11.23
2022-10-07T17:13:07.336Z,12.88
2022-10-07T17:17:24.642Z,9.15
2022-10-07T17:21:42.581Z,11.05
2022-10-07T17:26:09.833Z,9.50
2022-10-07T17:30:27.287Z,13.88
2022-10-07T17:34:45.511Z,14.32
2022-10-07T17:39:03.680Z,12.27
2022-10-07T17:43:21.031Z,12.97
2022-10-07T17:47:40.128Z,13.10
2022-10-07T17:51:57.951Z,13.05
2022-10-07T17:56:16.144Z,10.80
2022-10-07T18:00:33.589Z,9.90
2022-10-07T18:04:51.753Z,12.82
2022-10-07T18:09:12.752Z,10.77
2022-10-07T18:13:52.578Z,13.48
2022-10-07T18:18:10.193Z,12.15
2022-10-07T18:22:28.211Z,11.95
2022-10-07T18:26:45.551Z,10.88
2022-10-07T18:31:03.955Z,10.05
2022-10-07T18:35:22.618Z,13.90
2022-10-07T18:39:40.663Z,12.45
2022-10-07T18:43:59.481Z,11.80
2022-10-07T18:48:16.943Z,9.85
2022-10-07T18:52:34.436Z,14.77
2022-10-07T18:56:52.376Z,10.73
2022-10-07T19:01:18.399Z,14.63
2022-10-07T19:05:40.189Z,10.90
2022-10-07T19:09:57.486Z,14.93
2022-10-07T19:14:15.425Z,13.85
2022-10-07T19:18:35.909Z,10.90
2022-10-07T19:22:53.189Z,13.98
2022-10-07T19:27:10.778Z,15.65
2022-10-07T19:31:35.447Z,12.75
2022-10-07T19:35:56.397Z,13.43
2022-10-07T19:40:13.846Z,15.30
2022-10-07T19:44:33.704Z,14.88
2022-10-07T19:48:51.248Z,17.92
2022-10-07T19:53:08.632Z,13.18
2022-10-07T19:57:25.932Z,13.02
2022-10-07T20:01:45.699Z,13.20
2022-10-07T20:06:07.648Z,15.60
2022-10-07T20:10:26.459Z,14.82
2022-10-07T20:14:43.986Z,14.25
2022-10-07T20:19:05.961Z,15.18
2022-10-07T20:23:23.477Z,14.85
2022-10-07T20:27:42.533Z,13.90
2022-10-07T20:32:00.158Z,16.27
2022-10-07T20:36:20.827Z,15.88
2022-10-07T20:40:56.862Z,12.73
2022-10-07T20:45:14.480Z,10.25
2022-10-07T20:49:33.689Z,14.98
2022-10-07T20:53:51.471Z,24.35
2022-10-07T20:58:08.772Z,21.27
2022-10-07T21:02:28.464Z,16.90
2022-10-07T21:06:46.199Z,17.10
2022-10-07T21:11:04.929Z,17.95
2022-10-07T21:15:22.358Z,18.92
2022-10-07T21:19:40.184Z,15.90
2022-10-07T21:23:57.408Z,19.38
2022-10-07T21:28:15.041Z,17.35
2022-10-07T21:32:32.339Z,23.40
2022-10-07T21:36:53.841Z,18.20
2022-10-07T21:41:17.735Z,17.52
2022-10-07T21:45:35.244Z,17.65
2022-10-07T21:49:52.580Z,23.67
2022-10-07T21:54:14.456Z,25.10
2022-10-07T21:58:33.758Z,16.15
2022-10-07T22:02:52.811Z,15.43
2022-10-07T22:07:31.653Z,16.05
2022-10-07T22:11:50.606Z,14.93
2022-10-07T22:20:35.974Z,16.35
2022-10-07T22:24:53.765Z,15.20
2022-10-07T22:29:12.211Z,19.58
2022-10-07T22:33:29.756Z,19.35
2022-10-07T22:37:47.004Z,20.92
2022-10-07T22:42:04.600Z,19.25
2022-10-07T22:46:26.997Z,17.80
2022-10-07T22:50:44.737Z,17.73
2022-10-07T22:55:08.545Z,22.95
2022-10-07T22:59:26.373Z,23.60
2022-10-07T23:03:44.791Z,17.77
2022-10-07T23:08:05.375Z,19.08
2022-10-07T23:12:22.841Z,20.92
2022-10-07T23:16:42.803Z,20.25
2022-10-07T23:21:05.372Z,18.85
2022-10-07T23:25:26.903Z,23.50
2022-10-07T23:29:45.211Z,15.93
2022-10-07T23:34:03.582Z,19.95
2022-10-07T23:38:21.211Z,15.40
2022-10-07T23:42:38.555Z,17.38
2022-10-07T23:46:55.992Z,15.48
2022-10-07T23:51:19.643Z,12.98
2022-10-07T23:55:36.998Z,13.57
2022-10-07T23:59:54.588Z,19.05
